sensor_id;sensor_type;location;lat;lon;timestamp;temperature;humidity
5842;DHT22;2947;52.276;9.946;2023-07-13T00:01:50;19.60;99.90
5842;DHT22;2947;52.276;9.946;2023-07-13T00:04:17;19.60;99.90
5842;DHT22;2947;52.276;9.946;2023-07-13T00:06:45;19.60;1.00
5842;DHT22;2947;52.276;9.946;2023-07-13T00:09:13;19.60;1.00
5842;DHT22;2947;52.276;9.946;2023-07-13T00:11:41;19.50;99.90
5842;DHT22;2947;52.276;9.946;2023-07-13T00:14:07;19.50;99.90
5842;DHT22;2947;52.276;9.946;2023-07-13T00:16:35;19.50;63.50
5842;DHT22;2947;52.276;9.946;2023-07-13T00:19:02;19.40;1.00
5842;DHT22;2947;52.276;9.946;2023-07-13T00:21:28;19.40;1.00
5842;DHT22;2947;52.276;9.946;2023-07-13T00:23:54;19.50;99.90
5842;DHT22;2947;52.276;9.946;2023-07-13T00:26:19;19.40;99.90
5842;DHT22;2947;52.276;9.946;2023-07-13T00:28:45;19.40;99.90
5842;DHT22;2947;52.276;9.946;2023-07-13T00:31:12;19.30;99.90
5842;DHT22;2947;52.276;9.946;2023-07-13T00:33:40;19.30;1.00
5842;DHT22;2947;52.276;9.946;2023-07-13T00:36:06;19.30;1.00
5842;DHT22;2947;52.276;9.946;2023-07-13T00:38:32;19.30;73.70
5842;DHT22;2947;52.276;9.946;2023-07-13T00:40:58;19.20;99.90
5842;DHT22;2947;52.276;9.946;2023-07-13T00:43:27;19.20;99.90
5842;DHT22;2947;52.276;9.946;2023-07-13T00:48:21;19.10;99.90
5842;DHT22;2947;52.276;9.946;2023-07-13T00:50:53;19.10;99.90
5842;DHT22;2947;52.276;9.946;2023-07-13T00:53:21;19.10;1.00
5842;DHT22;2947;52.276;9.946;2023-07-13T00:55:49;19.00;1.00
5842;DHT22;2947;52.276;9.946;2023-07-13T00:58:15;19.00;1.00
5842;DHT22;2947;52.276;9.946;2023-07-13T01:00:41;18.90;1.00
5842;DHT22;2947;52.276;9.946;2023-07-13T01:03:08;18.90;1.00
5842;DHT22;2947;52.276;9.946;2023-07-13T01:05:34;18.90;1.00
5842;DHT22;2947;52.276;9.946;2023-07-13T01:08:01;18.90;1.00
5842;DHT22;2947;52.276;9.946;2023-07-13T01:10:30;18.90;1.00
5842;DHT22;2947;52.276;9.946;2023-07-13T01:13:02;18.80;1.00
5842;DHT22;2947;52.276;9.946;2023-07-13T01:15:44;18.90;1.00
5842;DHT22;2947;52.276;9.946;2023-07-13T01:18:20;18.70;1.00
5842;DHT22;2947;52.276;9.946;2023-07-13T01:20:52;18.60;1.00
5842;DHT22;2947;52.276;9.946;2023-07-13T01:23:23;18.50;1.00
5842;DHT22;2947;52.276;9.946;2023-07-13T01:25:50;18.30;1.00
5842;DHT22;2947;52.276;9.946;2023-07-13T01:28:17;18.30;1.00
5842;DHT22;2947;52.276;9.946;2023-07-13T01:30:44;18.20;1.00
5842;DHT22;2947;52.276;9.946;2023-07-13T01:33:12;18.20;1.00
5842;DHT22;2947;52.276;9.946;2023-07-13T01:35:40;18.10;1.00
5842;DHT22;2947;52.276;9.946;2023-07-13T01:38:06;18.00;1.00
5842;DHT22;2947;52.276;9.946;2023-07-13T01:40:33;18.00;1.00
5842;DHT22;2947;52.276;9.946;2023-07-13T01:43:00;17.90;1.00
5842;DHT22;2947;52.276;9.946;2023-07-13T01:45:26;17.90;1.00
5842;DHT22;2947;52.276;9.946;2023-07-13T01:47:52;17.90;1.00
5842;DHT22;2947;52.276;9.946;2023-07-13T01:50:17;17.80;1.00
5842;DHT22;2947;52.276;9.946;2023-07-13T01:52:43;17.80;1.00
5842;DHT22;2947;52.276;9.946;2023-07-13T01:55:09;17.80;1.00
5842;DHT22;2947;52.276;9.946;2023-07-13T01:57:34;17.70;1.00
5842;DHT22;2947;52.276;9.946;2023-07-13T02:00:04;17.70;1.00
5842;DHT22;2947;52.276;9.946;2023-07-13T02:02:31;17.70;1.00
5842;DHT22;2947;52.276;9.946;2023-07-13T02:04:56;17.70;1.00
5842;DHT22;2947;52.276;9.946;2023-07-13T02:07:22;17.70;1.00
5842;DHT22;2947;52.276;9.946;2023-07-13T02:09:48;17.70;1.00
5842;DHT22;2947;52.276;9.946;2023-07-13T02:12:14;17.70;1.00
5842;DHT22;2947;52.276;9.946;2023-07-13T02:14:40;17.60;1.00
5842;DHT22;2947;52.276;9.946;2023-07-13T02:17:05;17.60;1.00
5842;DHT22;2947;52.276;9.946;2023-07-13T02:19:31;17.60;1.00
5842;DHT22;2947;52.276;9.946;2023-07-13T02:21:58;17.60;99.90
5842;DHT22;2947;52.276;9.946;2023-07-13T02:24:23;17.70;99.90
5842;DHT22;2947;52.276;9.946;2023-07-13T02:26:49;17.60;99.90
5842;DHT22;2947;52.276;9.946;2023-07-13T02:29:15;17.70;99.90
5842;DHT22;2947;52.276;9.946;2023-07-13T02:31:41;17.60;1.00
5842;DHT22;2947;52.276;9.946;2023-07-13T02:34:06;17.60;1.00
5842;DHT22;2947;52.276;9.946;2023-07-13T02:36:34;17.60;1.00
5842;DHT22;2947;52.276;9.946;2023-07-13T02:39:04;17.60;1.00
5842;DHT22;2947;52.276;9.946;2023-07-13T02:41:31;17.50;1.00
5842;DHT22;2947;52.276;9.946;2023-07-13T02:44:01;17.50;1.00
5842;DHT22;2947;52.276;9.946;2023-07-13T02:46:33;17.50;1.00
5842;DHT22;2947;52.276;9.946;2023-07-13T02:49:00;17.40;1.00
5842;DHT22;2947;52.276;9.946;2023-07-13T02:51:26;17.30;1.00
5842;DHT22;2947;52.276;9.946;2023-07-13T02:53:52;17.30;1.00
5842;DHT22;2947;52.276;9.946;2023-07-13T02:56:26;17.30;1.00
5842;DHT22;2947;52.276;9.946;2023-07-13T02:58:53;17.30;1.00
5842;DHT22;2947;52.276;9.946;2023-07-13T03:01:20;17.30;1.00
5842;DHT22;2947;52.276;9.946;2023-07-13T03:03:47;17.30;1.00
5842;DHT22;2947;52.276;9.946;2023-07-13T03:06:14;17.20;1.00
5842;DHT22;2947;52.276;9.946;2023-07-13T03:08:41;17.20;1.00
5842;DHT22;2947;52.276;9.946;2023-07-13T03:11:15;17.30;1.00
5842;DHT22;2947;52.276;9.946;2023-07-13T03:13:42;17.30;1.00
5842;DHT22;2947;52.276;9.946;2023-07-13T03:16:09;17.30;1.00
5842;DHT22;2947;52.276;9.946;2023-07-13T03:18:36;17.20;1.00
5842;DHT22;2947;52.276;9.946;2023-07-13T03:21:02;17.30;1.00
5842;DHT22;2947;52.276;9.946;2023-07-13T03:23:28;17.20;1.00
5842;DHT22;2947;52.276;9.946;2023-07-13T03:26:20;17.20;99.90
5842;DHT22;2947;52.276;9.946;2023-07-13T03:28:46;17.20;1.00
5842;DHT22;2947;52.276;9.946;2023-07-13T03:31:19;17.20;1.00
5842;DHT22;2947;52.276;9.946;2023-07-13T03:33:46;17.10;1.00
5842;DHT22;2947;52.276;9.946;2023-07-13T03:36:16;17.10;1.00
5842;DHT22;2947;52.276;9.946;2023-07-13T03:38:51;17.10;1.00
5842;DHT22;2947;52.276;9.946;2023-07-13T03:41:19;17.10;1.00
5842;DHT22;2947;52.276;9.946;2023-07-13T03:43:46;17.10;1.00
5842;DHT22;2947;52.276;9.946;2023-07-13T03:46:13;17.00;1.00
5842;DHT22;2947;52.276;9.946;2023-07-13T03:48:40;17.10;1.00
5842;DHT22;2947;52.276;9.946;2023-07-13T03:51:08;17.00;1.00
5842;DHT22;2947;52.276;9.946;2023-07-13T03:53:38;17.10;1.00
5842;DHT22;2947;52.276;9.946;2023-07-13T03:56:04;17.10;99.90
5842;DHT22;2947;52.276;9.946;2023-07-13T03:58:35;17.10;1.00
5842;DHT22;2947;52.276;9.946;2023-07-13T04:01:07;17.10;99.90
5842;DHT22;2947;52.276;9.946;2023-07-13T04:03:34;17.10;1.00
5842;DHT22;2947;52.276;9.946;2023-07-13T04:06:04;17.10;1.00
5842;DHT22;2947;52.276;9.946;2023-07-13T04:08:34;17.00;1.00
5842;DHT22;2947;52.276;9.946;2023-07-13T04:11:02;17.00;1.00
5842;DHT22;2947;52.276;9.946;2023-07-13T04:13:29;17.10;1.00
5842;DHT22;2947;52.276;9.946;2023-07-13T04:15:55;17.10;1.00
5842;DHT22;2947;52.276;9.946;2023-07-13T04:18:21;17.10;1.00
5842;DHT22;2947;52.276;9.946;2023-07-13T04:20:48;17.10;1.00
5842;DHT22;2947;52.276;9.946;2023-07-13T04:23:15;17.20;1.00
5842;DHT22;2947;52.276;9.946;2023-07-13T04:25:45;17.10;1.00
5842;DHT22;2947;52.276;9.946;2023-07-13T04:28:12;17.20;1.00
5842;DHT22;2947;52.276;9.946;2023-07-13T04:30:38;17.20;1.00
5842;DHT22;2947;52.276;9.946;2023-07-13T04:33:03;17.20;1.00
5842;DHT22;2947;52.276;9.946;2023-07-13T04:35:30;17.20;1.00
5842;DHT22;2947;52.276;9.946;2023-07-13T04:37:56;17.20;1.00
5842;DHT22;2947;52.276;9.946;2023-07-13T04:40:21;17.30;1.00
5842;DHT22;2947;52.276;9.946;2023-07-13T04:42:47;17.30;1.00
5842;DHT22;2947;52.276;9.946;2023-07-13T04:45:14;17.30;99.90
5842;DHT22;2947;52.276;9.946;2023-07-13T04:47:40;17.30;99.90
5842;DHT22;2947;52.276;9.946;2023-07-13T04:50:07;17.40;1.00
5842;DHT22;2947;52.276;9.946;2023-07-13T04:52:33;17.40;99.90
5842;DHT22;2947;52.276;9.946;2023-07-13T04:54:59;17.40;99.90
5842;DHT22;2947;52.276;9.946;2023-07-13T04:57:26;17.50;99.90
5842;DHT22;2947;52.276;9.946;2023-07-13T04:59:52;17.50;99.90
5842;DHT22;2947;52.276;9.946;2023-07-13T05:02:20;17.60;99.90
5842;DHT22;2947;52.276;9.946;2023-07-13T05:04:47;17.60;99.90
5842;DHT22;2947;52.276;9.946;2023-07-13T05:07:13;17.70;99.90
5842;DHT22;2947;52.276;9.946;2023-07-13T05:09:39;17.70;99.90
5842;DHT22;2947;52.276;9.946;2023-07-13T05:12:08;17.70;99.90
5842;DHT22;2947;52.276;9.946;2023-07-13T05:14:34;17.80;99.90
5842;DHT22;2947;52.276;9.946;2023-07-13T05:16:59;17.90;99.90
5842;DHT22;2947;52.276;9.946;2023-07-13T05:19:25;18.10;99.90
5842;DHT22;2947;52.276;9.946;2023-07-13T05:21:51;18.20;1.00
5842;DHT22;2947;52.276;9.946;2023-07-13T05:24:17;18.30;99.90
5842;DHT22;2947;52.276;9.946;2023-07-13T05:26:43;18.50;1.00
5842;DHT22;2947;52.276;9.946;2023-07-13T05:29:09;18.60;1.00
5842;DHT22;2947;52.276;9.946;2023-07-13T05:31:35;18.70;1.00
5842;DHT22;2947;52.276;9.946;2023-07-13T05:34:01;18.90;99.90
5842;DHT22;2947;52.276;9.946;2023-07-13T05:36:27;19.00;1.00
5842;DHT22;2947;52.276;9.946;2023-07-13T05:38:52;19.00;99.90
5842;DHT22;2947;52.276;9.946;2023-07-13T05:41:18;19.10;1.00
5842;DHT22;2947;52.276;9.946;2023-07-13T05:43:44;19.00;1.00
5842;DHT22;2947;52.276;9.946;2023-07-13T05:46:09;19.10;1.00
5842;DHT22;2947;52.276;9.946;2023-07-13T05:48:35;19.10;1.00
5842;DHT22;2947;52.276;9.946;2023-07-13T05:51:01;19.10;99.90
5842;DHT22;2947;52.276;9.946;2023-07-13T05:53:27;19.10;99.90
5842;DHT22;2947;52.276;9.946;2023-07-13T05:55:54;19.10;1.00
5842;DHT22;2947;52.276;9.946;2023-07-13T05:58:20;19.20;99.90
5842;DHT22;2947;52.276;9.946;2023-07-13T06:00:46;19.20;99.90
5842;DHT22;2947;52.276;9.946;2023-07-13T06:03:13;19.20;99.90
5842;DHT22;2947;52.276;9.946;2023-07-13T06:05:39;19.30;99.90
5842;DHT22;2947;52.276;9.946;2023-07-13T06:08:06;19.40;1.00
5842;DHT22;2947;52.276;9.946;2023-07-13T06:10:33;19.50;1.00
5842;DHT22;2947;52.276;9.946;2023-07-13T06:13:00;19.50;1.00
5842;DHT22;2947;52.276;9.946;2023-07-13T06:15:25;19.70;99.90
5842;DHT22;2947;52.276;9.946;2023-07-13T06:17:51;19.80;52.40
5842;DHT22;2947;52.276;9.946;2023-07-13T06:20:17;19.90;99.90
5842;DHT22;2947;52.276;9.946;2023-07-13T06:22:42;19.90;1.00
5842;DHT22;2947;52.276;9.946;2023-07-13T06:25:08;19.90;1.00
5842;DHT22;2947;52.276;9.946;2023-07-13T06:27:34;19.80;1.00
5842;DHT22;2947;52.276;9.946;2023-07-13T06:30:00;19.80;99.90
5842;DHT22;2947;52.276;9.946;2023-07-13T06:32:26;19.80;99.90
5842;DHT22;2947;52.276;9.946;2023-07-13T06:34:51;19.90;99.90
5842;DHT22;2947;52.276;9.946;2023-07-13T06:37:18;20.00;99.90
5842;DHT22;2947;52.276;9.946;2023-07-13T06:39:43;20.10;99.90
5842;DHT22;2947;52.276;9.946;2023-07-13T06:42:09;20.00;1.00
5842;DHT22;2947;52.276;9.946;2023-07-13T06:44:36;20.00;1.00
5842;DHT22;2947;52.276;9.946;2023-07-13T06:47:02;20.10;1.00
5842;DHT22;2947;52.276;9.946;2023-07-13T06:49:28;20.00;1.00
5842;DHT22;2947;52.276;9.946;2023-07-13T06:51:53;20.10;99.90
5842;DHT22;2947;52.276;9.946;2023-07-13T06:54:19;20.10;99.90
5842;DHT22;2947;52.276;9.946;2023-07-13T06:56:45;20.10;99.90
5842;DHT22;2947;52.276;9.946;2023-07-13T06:59:10;20.10;99.90
5842;DHT22;2947;52.276;9.946;2023-07-13T07:01:36;20.10;99.90
5842;DHT22;2947;52.276;9.946;2023-07-13T07:04:03;20.00;99.90
5842;DHT22;2947;52.276;9.946;2023-07-13T07:06:29;19.90;99.90
5842;DHT22;2947;52.276;9.946;2023-07-13T07:08:55;19.70;99.90
5842;DHT22;2947;52.276;9.946;2023-07-13T07:11:23;19.70;99.90
5842;DHT22;2947;52.276;9.946;2023-07-13T07:13:51;19.90;99.90
5842;DHT22;2947;52.276;9.946;2023-07-13T07:16:19;19.90;99.90
5842;DHT22;2947;52.276;9.946;2023-07-13T07:18:45;19.80;99.90
5842;DHT22;2947;52.276;9.946;2023-07-13T07:21:12;19.80;99.90
5842;DHT22;2947;52.276;9.946;2023-07-13T07:23:38;19.80;99.90
5842;DHT22;2947;52.276;9.946;2023-07-13T07:26:04;19.80;99.90
5842;DHT22;2947;52.276;9.946;2023-07-13T07:28:30;19.90;99.90
5842;DHT22;2947;52.276;9.946;2023-07-13T07:30:57;20.00;99.90
5842;DHT22;2947;52.276;9.946;2023-07-13T07:33:24;20.00;99.90
5842;DHT22;2947;52.276;9.946;2023-07-13T07:35:50;20.10;99.90
5842;DHT22;2947;52.276;9.946;2023-07-13T07:38:16;20.10;99.90
5842;DHT22;2947;52.276;9.946;2023-07-13T07:40:42;20.20;99.90
5842;DHT22;2947;52.276;9.946;2023-07-13T07:43:09;20.30;99.90
5842;DHT22;2947;52.276;9.946;2023-07-13T07:45:36;20.40;99.90
5842;DHT22;2947;52.276;9.946;2023-07-13T07:48:03;20.40;99.90
5842;DHT22;2947;52.276;9.946;2023-07-13T07:50:30;20.40;99.50
5842;DHT22;2947;52.276;9.946;2023-07-13T07:52:56;20.60;99.90
5842;DHT22;2947;52.276;9.946;2023-07-13T07:55:22;20.60;16.90
5842;DHT22;2947;52.276;9.946;2023-07-13T07:57:48;20.60;8.80
5842;DHT22;2947;52.276;9.946;2023-07-13T08:00:15;20.40;1.00
5842;DHT22;2947;52.276;9.946;2023-07-13T08:02:42;20.50;1.70
5842;DHT22;2947;52.276;9.946;2023-07-13T08:05:08;20.50;34.20
5842;DHT22;2947;52.276;9.946;2023-07-13T08:07:36;20.50;2.90
5842;DHT22;2947;52.276;9.946;2023-07-13T08:10:03;20.60;10.10
5842;DHT22;2947;52.276;9.946;2023-07-13T08:12:29;20.50;7.00
5842;DHT22;2947;52.276;9.946;2023-07-13T08:14:55;20.70;19.30
5842;DHT22;2947;52.276;9.946;2023-07-13T08:17:23;20.80;1.00
5842;DHT22;2947;52.276;9.946;2023-07-13T08:19:50;20.70;1.00
5842;DHT22;2947;52.276;9.946;2023-07-13T08:22:16;20.70;1.00
5842;DHT22;2947;52.276;9.946;2023-07-13T08:24:42;20.70;1.00
5842;DHT22;2947;52.276;9.946;2023-07-13T08:27:08;21.00;1.00
5842;DHT22;2947;52.276;9.946;2023-07-13T08:29:34;21.20;1.00
5842;DHT22;2947;52.276;9.946;2023-07-13T08:32:00;21.10;1.00
5842;DHT22;2947;52.276;9.946;2023-07-13T08:34:26;21.80;1.00
5842;DHT22;2947;52.276;9.946;2023-07-13T08:36:51;21.00;1.00
5842;DHT22;2947;52.276;9.946;2023-07-13T08:39:17;20.90;1.00
5842;DHT22;2947;52.276;9.946;2023-07-13T08:41:49;21.00;1.00
5842;DHT22;2947;52.276;9.946;2023-07-13T08:47:12;21.30;1.00
5842;DHT22;2947;52.276;9.946;2023-07-13T08:49:40;21.40;1.00
5842;DHT22;2947;52.276;9.946;2023-07-13T08:52:15;21.50;1.00
5842;DHT22;2947;52.276;9.946;2023-07-13T08:54:50;21.70;1.00
5842;DHT22;2947;52.276;9.946;2023-07-13T08:57:20;21.80;1.00
5842;DHT22;2947;52.276;9.946;2023-07-13T08:59:56;21.80;1.00
5842;DHT22;2947;52.276;9.946;2023-07-13T09:02:50;21.90;1.00
5842;DHT22;2947;52.276;9.946;2023-07-13T09:11:23;22.30;1.00
5842;DHT22;2947;52.276;9.946;2023-07-13T09:14:14;22.10;1.00
5842;DHT22;2947;52.276;9.946;2023-07-13T09:16:42;22.20;1.00
5842;DHT22;2947;52.276;9.946;2023-07-13T09:19:16;22.20;1.00
5842;DHT22;2947;52.276;9.946;2023-07-13T09:21:50;22.20;1.00
5842;DHT22;2947;52.276;9.946;2023-07-13T09:26:52;22.40;1.00
5842;DHT22;2947;52.276;9.946;2023-07-13T09:29:31;22.50;1.00
5842;DHT22;2947;52.276;9.946;2023-07-13T09:32:02;22.70;1.00
5842;DHT22;2947;52.276;9.946;2023-07-13T09:34:30;22.90;1.00
5842;DHT22;2947;52.276;9.946;2023-07-13T09:36:57;23.10;99.90
5842;DHT22;2947;52.276;9.946;2023-07-13T09:39:27;23.10;99.90
5842;DHT22;2947;52.276;9.946;2023-07-13T09:42:15;23.20;99.90
5842;DHT22;2947;52.276;9.946;2023-07-13T09:44:51;23.40;99.90
5842;DHT22;2947;52.276;9.946;2023-07-13T09:47:27;23.60;99.90
5842;DHT22;2947;52.276;9.946;2023-07-13T09:50:07;23.40;99.90
5842;DHT22;2947;52.276;9.946;2023-07-13T09:52:46;23.30;99.90
5842;DHT22;2947;52.276;9.946;2023-07-13T09:55:39;23.40;99.90
5842;DHT22;2947;52.276;9.946;2023-07-13T09:58:22;23.60;99.90
5842;DHT22;2947;52.276;9.946;2023-07-13T10:01:03;23.70;99.90
5842;DHT22;2947;52.276;9.946;2023-07-13T10:03:35;23.70;99.90
5842;DHT22;2947;52.276;9.946;2023-07-13T10:06:19;23.90;99.90
5842;DHT22;2947;52.276;9.946;2023-07-13T10:08:48;24.00;99.90
5842;DHT22;2947;52.276;9.946;2023-07-13T10:11:28;24.10;99.90
5842;DHT22;2947;52.276;9.946;2023-07-13T10:14:00;24.10;99.90
5842;DHT22;2947;52.276;9.946;2023-07-13T10:16:33;24.20;99.90
5842;DHT22;2947;52.276;9.946;2023-07-13T10:19:02;24.20;99.90
5842;DHT22;2947;52.276;9.946;2023-07-13T10:21:49;24.40;99.90
5842;DHT22;2947;52.276;9.946;2023-07-13T10:24:20;24.30;99.90
5842;DHT22;2947;52.276;9.946;2023-07-13T10:29:51;24.70;99.90
5842;DHT22;2947;52.276;9.946;2023-07-13T10:32:21;24.70;99.90
5842;DHT22;2947;52.276;9.946;2023-07-13T10:34:49;24.90;99.90
5842;DHT22;2947;52.276;9.946;2023-07-13T10:37:21;25.00;99.90
5842;DHT22;2947;52.276;9.946;2023-07-13T10:39:50;25.00;99.90
5842;DHT22;2947;52.276;9.946;2023-07-13T10:42:30;25.00;99.90
5842;DHT22;2947;52.276;9.946;2023-07-13T10:44:58;25.20;99.90
5842;DHT22;2947;52.276;9.946;2023-07-13T10:47:24;25.30;99.90
5842;DHT22;2947;52.276;9.946;2023-07-13T10:49:54;25.40;99.90
5842;DHT22;2947;52.276;9.946;2023-07-13T10:52:47;25.30;99.90
5842;DHT22;2947;52.276;9.946;2023-07-13T10:55:54;25.40;99.90
5842;DHT22;2947;52.276;9.946;2023-07-13T10:58:28;25.70;99.90
5842;DHT22;2947;52.276;9.946;2023-07-13T11:03:49;26.00;99.90
5842;DHT22;2947;52.276;9.946;2023-07-13T11:11:36;26.00;99.90
5842;DHT22;2947;52.276;9.946;2023-07-13T11:14:05;26.00;99.90
5842;DHT22;2947;52.276;9.946;2023-07-13T11:20:23;26.20;99.90
5842;DHT22;2947;52.276;9.946;2023-07-13T11:25:38;26.00;99.90
5842;DHT22;2947;52.276;9.946;2023-07-13T11:30:38;25.90;99.90
5842;DHT22;2947;52.276;9.946;2023-07-13T11:33:18;26.00;99.90
5842;DHT22;2947;52.276;9.946;2023-07-13T11:35:58;25.70;99.90
5842;DHT22;2947;52.276;9.946;2023-07-13T11:38:30;25.80;99.90
5842;DHT22;2947;52.276;9.946;2023-07-13T11:43:42;25.60;99.90
5842;DHT22;2947;52.276;9.946;2023-07-13T11:46:22;25.60;99.90
5842;DHT22;2947;52.276;9.946;2023-07-13T11:48:50;25.70;99.90
5842;DHT22;2947;52.276;9.946;2023-07-13T11:51:29;25.70;99.90
5842;DHT22;2947;52.276;9.946;2023-07-13T11:53:58;25.90;99.90
5842;DHT22;2947;52.276;9.946;2023-07-13T11:56:27;26.00;99.90
5842;DHT22;2947;52.276;9.946;2023-07-13T11:58:54;26.00;99.90
5842;DHT22;2947;52.276;9.946;2023-07-13T12:01:25;25.90;99.90
5842;DHT22;2947;52.276;9.946;2023-07-13T12:04:01;25.90;99.90
5842;DHT22;2947;52.276;9.946;2023-07-13T12:06:35;25.90;99.90
5842;DHT22;2947;52.276;9.946;2023-07-13T12:09:13;25.80;99.90
5842;DHT22;2947;52.276;9.946;2023-07-13T12:11:42;25.70;99.90
5842;DHT22;2947;52.276;9.946;2023-07-13T12:14:16;25.70;99.90
5842;DHT22;2947;52.276;9.946;2023-07-13T12:16:43;25.60;99.90
5842;DHT22;2947;52.276;9.946;2023-07-13T12:19:22;25.70;99.90
5842;DHT22;2947;52.276;9.946;2023-07-13T12:21:52;25.80;99.90
5842;DHT22;2947;52.276;9.946;2023-07-13T12:24:20;25.80;99.90
5842;DHT22;2947;52.276;9.946;2023-07-13T12:27:02;25.80;99.90
5842;DHT22;2947;52.276;9.946;2023-07-13T12:29:30;25.90;99.90
5842;DHT22;2947;52.276;9.946;2023-07-13T12:31:57;25.90;99.90
5842;DHT22;2947;52.276;9.946;2023-07-13T12:34:25;26.10;99.90
5842;DHT22;2947;52.276;9.946;2023-07-13T12:36:55;25.80;99.90
5842;DHT22;2947;52.276;9.946;2023-07-13T12:39:24;26.00;99.90
5842;DHT22;2947;52.276;9.946;2023-07-13T12:44:43;26.10;99.90
5842;DHT22;2947;52.276;9.946;2023-07-13T12:47:13;26.00;99.90
5842;DHT22;2947;52.276;9.946;2023-07-13T12:49:43;26.00;99.90
5842;DHT22;2947;52.276;9.946;2023-07-13T12:52:16;25.90;99.90
5842;DHT22;2947;52.276;9.946;2023-07-13T12:54:56;25.90;99.90
5842;DHT22;2947;52.276;9.946;2023-07-13T12:57:24;25.90;99.90
5842;DHT22;2947;52.276;9.946;2023-07-13T12:59:53;26.00;99.90
5842;DHT22;2947;52.276;9.946;2023-07-13T13:02:34;26.10;99.90
5842;DHT22;2947;52.276;9.946;2023-07-13T13:05:01;26.20;99.90
5842;DHT22;2947;52.276;9.946;2023-07-13T13:07:28;26.30;99.90
5842;DHT22;2947;52.276;9.946;2023-07-13T13:09:55;26.20;99.90
5842;DHT22;2947;52.276;9.946;2023-07-13T13:12:22;26.10;99.90
5842;DHT22;2947;52.276;9.946;2023-07-13T13:14:51;26.10;99.90
5842;DHT22;2947;52.276;9.946;2023-07-13T13:17:21;26.20;99.90
5842;DHT22;2947;52.276;9.946;2023-07-13T13:19:52;26.20;99.90
5842;DHT22;2947;52.276;9.946;2023-07-13T13:22:21;26.00;99.90
5842;DHT22;2947;52.276;9.946;2023-07-13T13:24:47;25.90;99.90
5842;DHT22;2947;52.276;9.946;2023-07-13T13:27:20;25.70;99.90
5842;DHT22;2947;52.276;9.946;2023-07-13T13:29:49;25.50;99.90
5842;DHT22;2947;52.276;9.946;2023-07-13T13:32:17;25.50;99.90
5842;DHT22;2947;52.276;9.946;2023-07-13T13:34:44;25.20;99.90
5842;DHT22;2947;52.276;9.946;2023-07-13T13:37:21;25.20;99.90
5842;DHT22;2947;52.276;9.946;2023-07-13T13:39:48;24.80;99.90
5842;DHT22;2947;52.276;9.946;2023-07-13T13:42:15;24.50;99.90
5842;DHT22;2947;52.276;9.946;2023-07-13T13:44:42;24.10;99.90
5842;DHT22;2947;52.276;9.946;2023-07-13T13:47:25;23.80;1.00
5842;DHT22;2947;52.276;9.946;2023-07-13T13:49:52;23.80;1.00
5842;DHT22;2947;52.276;9.946;2023-07-13T13:52:17;23.70;1.00
5842;DHT22;2947;52.276;9.946;2023-07-13T13:54:43;23.70;99.90
5842;DHT22;2947;52.276;9.946;2023-07-13T13:57:10;23.70;99.90
5842;DHT22;2947;52.276;9.946;2023-07-13T13:59:38;23.60;99.90
5842;DHT22;2947;52.276;9.946;2023-07-13T14:02:22;23.70;99.90
5842;DHT22;2947;52.276;9.946;2023-07-13T14:04:59;23.60;99.90
5842;DHT22;2947;52.276;9.946;2023-07-13T14:07:27;23.40;1.00
5842;DHT22;2947;52.276;9.946;2023-07-13T14:09:58;23.30;99.90
5842;DHT22;2947;52.276;9.946;2023-07-13T14:12:24;23.30;99.90
5842;DHT22;2947;52.276;9.946;2023-07-13T14:14:53;22.90;1.00
5842;DHT22;2947;52.276;9.946;2023-07-13T14:17:23;22.70;1.00
5842;DHT22;2947;52.276;9.946;2023-07-13T14:19:51;22.50;1.00
5842;DHT22;2947;52.276;9.946;2023-07-13T14:22:19;22.20;1.00
5842;DHT22;2947;52.276;9.946;2023-07-13T14:24:46;22.00;99.90
5842;DHT22;2947;52.276;9.946;2023-07-13T14:27:12;21.80;1.00
5842;DHT22;2947;52.276;9.946;2023-07-13T14:29:38;21.20;99.90
5842;DHT22;2947;52.276;9.946;2023-07-13T14:32:07;20.80;1.00
5842;DHT22;2947;52.276;9.946;2023-07-13T14:34:35;20.50;1.00
5842;DHT22;2947;52.276;9.946;2023-07-13T14:37:01;20.10;1.00
5842;DHT22;2947;52.276;9.946;2023-07-13T14:39:27;20.00;1.00
5842;DHT22;2947;52.276;9.946;2023-07-13T14:41:55;19.90;99.90
5842;DHT22;2947;52.276;9.946;2023-07-13T14:44:29;19.80;99.90
5842;DHT22;2947;52.276;9.946;2023-07-13T14:46:57;19.90;1.00
5842;DHT22;2947;52.276;9.946;2023-07-13T14:49:36;19.80;1.00
5842;DHT22;2947;52.276;9.946;2023-07-13T14:52:10;19.80;1.00
5842;DHT22;2947;52.276;9.946;2023-07-13T14:54:39;19.90;1.00
5842;DHT22;2947;52.276;9.946;2023-07-13T14:57:11;20.20;1.00
5842;DHT22;2947;52.276;9.946;2023-07-13T14:59:44;20.10;1.00
5842;DHT22;2947;52.276;9.946;2023-07-13T15:02:34;19.90;99.90
5842;DHT22;2947;52.276;9.946;2023-07-13T15:05:13;19.90;1.00
5842;DHT22;2947;52.276;9.946;2023-07-13T15:07:40;19.80;99.90
5842;DHT22;2947;52.276;9.946;2023-07-13T15:10:35;19.60;25.20
5842;DHT22;2947;52.276;9.946;2023-07-13T15:13:14;19.50;99.90
5842;DHT22;2947;52.276;9.946;2023-07-13T15:15:42;19.40;1.00
5842;DHT22;2947;52.276;9.946;2023-07-13T15:18:11;19.30;58.70
5842;DHT22;2947;52.276;9.946;2023-07-13T15:20:38;19.20;99.90
5842;DHT22;2947;52.276;9.946;2023-07-13T15:23:04;19.10;99.90
5842;DHT22;2947;52.276;9.946;2023-07-13T15:25:32;19.00;99.90
5842;DHT22;2947;52.276;9.946;2023-07-13T15:27:59;19.20;99.90
5842;DHT22;2947;52.276;9.946;2023-07-13T15:30:29;19.10;99.90
5842;DHT22;2947;52.276;9.946;2023-07-13T15:33:01;19.10;99.90
5842;DHT22;2947;52.276;9.946;2023-07-13T15:35:36;19.00;33.00
5842;DHT22;2947;52.276;9.946;2023-07-13T15:38:14;19.00;99.90
5842;DHT22;2947;52.276;9.946;2023-07-13T15:40:41;19.00;1.00
5842;DHT22;2947;52.276;9.946;2023-07-13T15:43:15;18.90;99.90
5842;DHT22;2947;52.276;9.946;2023-07-13T15:45:42;18.80;99.90
5842;DHT22;2947;52.276;9.946;2023-07-13T15:48:20;18.90;1.00
5842;DHT22;2947;52.276;9.946;2023-07-13T15:50:50;19.00;99.90
5842;DHT22;2947;52.276;9.946;2023-07-13T15:53:38;19.10;99.90
5842;DHT22;2947;52.276;9.946;2023-07-13T15:56:26;19.20;21.00
5842;DHT22;2947;52.276;9.946;2023-07-13T15:58:54;19.20;99.90
5842;DHT22;2947;52.276;9.946;2023-07-13T16:01:22;19.20;1.00
5842;DHT22;2947;52.276;9.946;2023-07-13T16:03:49;19.10;1.00
5842;DHT22;2947;52.276;9.946;2023-07-13T16:06:19;19.10;99.90
5842;DHT22;2947;52.276;9.946;2023-07-13T16:08:49;19.00;99.90
5842;DHT22;2947;52.276;9.946;2023-07-13T16:11:24;19.10;99.90
5842;DHT22;2947;52.276;9.946;2023-07-13T16:13:52;19.10;1.00
5842;DHT22;2947;52.276;9.946;2023-07-13T16:16:22;19.00;1.00
5842;DHT22;2947;52.276;9.946;2023-07-13T16:18:54;19.00;1.00
5842;DHT22;2947;52.276;9.946;2023-07-13T16:21:26;19.00;99.90
5842;DHT22;2947;52.276;9.946;2023-07-13T16:23:54;19.00;99.90
5842;DHT22;2947;52.276;9.946;2023-07-13T16:26:35;19.00;99.90
5842;DHT22;2947;52.276;9.946;2023-07-13T16:29:19;18.90;1.00
5842;DHT22;2947;52.276;9.946;2023-07-13T16:34:51;18.70;99.90
5842;DHT22;2947;52.276;9.946;2023-07-13T16:37:25;18.50;1.00
5842;DHT22;2947;52.276;9.946;2023-07-13T16:39:56;18.50;1.00
5842;DHT22;2947;52.276;9.946;2023-07-13T16:42:26;18.50;1.00
5842;DHT22;2947;52.276;9.946;2023-07-13T16:44:53;18.50;1.00
5842;DHT22;2947;52.276;9.946;2023-07-13T16:47:20;18.50;1.00
5842;DHT22;2947;52.276;9.946;2023-07-13T16:49:48;17.30;1.00
5842;DHT22;2947;52.276;9.946;2023-07-13T16:52:16;18.30;1.00
5842;DHT22;2947;52.276;9.946;2023-07-13T16:54:47;18.20;1.00
5842;DHT22;2947;52.276;9.946;2023-07-13T16:57:19;18.20;1.00
5842;DHT22;2947;52.276;9.946;2023-07-13T16:59:47;18.90;1.00
5842;DHT22;2947;52.276;9.946;2023-07-13T17:02:35;18.10;1.00
5842;DHT22;2947;52.276;9.946;2023-07-13T17:05:04;18.20;1.00
5842;DHT22;2947;52.276;9.946;2023-07-13T17:07:31;18.20;1.00